createdAt,value
2018-09-12T00:02:21.776Z,3.50
2018-09-12T00:04:49.983Z,3.13
2018-09-12T00:07:18.220Z,3.23
2018-09-12T00:09:46.443Z,2.90
2018-09-12T00:12:14.667Z,3.63
2018-09-12T00:14:42.880Z,3.93
2018-09-12T00:17:11.110Z,3.70
2018-09-12T00:19:39.287Z,3.23
2018-09-12T00:22:07.536Z,3.03
2018-09-12T00:24:35.968Z,2.73
2018-09-12T00:27:04.240Z,2.67
2018-09-12T00:29:32.429Z,3.33
2018-09-12T00:32:00.628Z,2.90
2018-09-12T00:34:29.831Z,3.97
2018-09-12T00:36:58.019Z,3.40
2018-09-12T00:39:26.234Z,2.90
2018-09-12T00:41:54.443Z,2.30
2018-09-12T00:44:22.656Z,3.60
2018-09-12T00:46:50.851Z,3.60
2018-09-12T00:49:19.059Z,3.57
2018-09-12T00:51:47.484Z,3.50
2018-09-12T00:54:15.682Z,3.97
2018-09-12T00:56:43.863Z,3.53
2018-09-12T00:59:12.072Z,3.47
2018-09-12T01:01:40.264Z,3.27
2018-09-12T01:04:08.483Z,3.10
2018-09-12T01:06:36.671Z,2.93
2018-09-12T01:09:06.428Z,2.70
2018-09-12T01:11:34.619Z,3.97
2018-09-12T01:14:02.929Z,2.57
2018-09-12T01:16:33.927Z,3.30
2018-09-12T01:19:02.162Z,3.50
2018-09-12T01:21:30.415Z,3.63
2018-09-12T01:23:58.801Z,3.30
2018-09-12T01:26:26.971Z,3.10
2018-09-12T01:28:55.163Z,2.63
2018-09-12T01:31:23.359Z,4.03
2018-09-12T01:33:51.987Z,3.43
2018-09-12T01:36:20.172Z,3.10
2018-09-12T01:38:48.386Z,3.33
2018-09-12T01:41:16.558Z,2.80
2018-09-12T01:43:44.767Z,3.30
2018-09-12T01:46:12.983Z,3.13
2018-09-12T01:48:41.194Z,3.10
2018-09-12T01:51:09.382Z,3.67
2018-09-12T01:53:37.558Z,3.60
2018-09-12T01:56:05.742Z,3.33
2018-09-12T01:58:33.960Z,3.17
2018-09-12T02:01:02.164Z,2.83
2018-09-12T02:03:30.379Z,2.80
2018-09-12T02:05:58.567Z,4.10
2018-09-12T02:08:27.315Z,2.50
2018-09-12T02:10:55.509Z,3.80
2018-09-12T02:13:23.715Z,4.33
2018-09-12T02:15:51.987Z,3.77
2018-09-12T02:18:20.176Z,3.50
2018-09-12T02:20:48.373Z,3.73
2018-09-12T02:23:16.583Z,3.60
2018-09-12T02:25:44.787Z,4.27
2018-09-12T02:28:13.015Z,3.67
2018-09-12T02:30:41.207Z,4.00
2018-09-12T02:33:09.433Z,4.00
2018-09-12T02:35:41.844Z,3.60
2018-09-12T02:38:10.055Z,4.37
2018-09-12T02:40:38.267Z,4.20
2018-09-12T02:43:06.523Z,3.30
2018-09-12T02:45:34.691Z,3.70
2018-09-12T02:48:02.880Z,3.00
2018-09-12T02:50:31.113Z,3.80
2018-09-12T02:52:59.313Z,4.07
2018-09-12T02:55:27.499Z,3.53
2018-09-12T02:57:55.711Z,3.70
2018-09-12T03:00:24.115Z,3.70
2018-09-12T03:02:52.298Z,2.53
2018-09-12T03:05:20.518Z,4.77
2018-09-12T03:07:48.692Z,3.53
2018-09-12T03:10:16.858Z,4.37
2018-09-12T03:12:45.033Z,4.83
2018-09-12T03:15:13.229Z,4.63
2018-09-12T03:17:41.389Z,3.30
2018-09-12T03:20:10.427Z,3.73
2018-09-12T03:22:38.622Z,3.67
2018-09-12T03:25:06.813Z,3.53
2018-09-12T03:27:34.994Z,4.10
2018-09-12T03:30:03.178Z,4.80
2018-09-12T03:32:31.358Z,4.50
2018-09-12T03:34:59.557Z,4.27
2018-09-12T03:37:27.742Z,4.70
2018-09-12T03:39:55.986Z,3.70
2018-09-12T03:42:24.172Z,3.60
2018-09-12T03:44:52.370Z,3.80
2018-09-12T03:47:20.555Z,4.77
2018-09-12T03:49:48.772Z,4.33
2018-09-12T03:52:16.938Z,3.87
2018-09-12T03:54:45.125Z,4.27
2018-09-12T03:57:13.298Z,3.20
2018-09-12T03:59:42.202Z,5.30
2018-09-12T04:02:12.788Z,4.60
2018-09-12T04:04:46.467Z,3.47
2018-09-12T04:07:14.754Z,4.83
2018-09-12T04:09:43.438Z,4.47
2018-09-12T04:12:11.687Z,4.83
2018-09-12T04:14:39.889Z,3.33
2018-09-12T04:17:08.199Z,4.47
2018-09-12T04:19:36.394Z,3.53
2018-09-12T04:22:04.550Z,4.00
2018-09-12T04:24:32.743Z,5.03
2018-09-12T04:27:00.939Z,4.27
2018-09-12T04:29:29.139Z,4.30
2018-09-12T04:31:57.351Z,5.50
2018-09-12T04:34:26.328Z,4.73
2018-09-12T04:36:54.492Z,4.60
2018-09-12T04:39:22.679Z,58.23
2018-09-12T04:41:50.848Z,28.50
2018-09-12T04:44:19.047Z,52.90
2018-09-12T04:46:47.227Z,11.87
2018-09-12T04:49:15.405Z,8.37
2018-09-12T04:51:43.594Z,24.50
2018-09-12T04:54:11.779Z,57.17
2018-09-12T04:56:39.969Z,8.17
2018-09-12T04:59:08.127Z,6.00
2018-09-12T05:01:36.318Z,5.53
2018-09-12T05:04:04.503Z,6.33
2018-09-12T05:06:32.675Z,6.23
2018-09-12T05:09:00.883Z,4.97
2018-09-12T05:11:29.039Z,4.90
2018-09-12T05:13:57.227Z,6.07
2018-09-12T05:16:25.548Z,5.93
2018-09-12T05:18:53.711Z,5.27
2018-09-12T05:21:21.897Z,5.50
2018-09-12T05:23:50.131Z,4.70
2018-09-12T05:26:18.290Z,5.53
2018-09-12T05:28:46.462Z,5.40
2018-09-12T05:31:14.709Z,4.63
2018-09-12T05:33:43.475Z,5.80
2018-09-12T05:36:12.375Z,5.77
2018-09-12T05:38:40.590Z,6.63
2018-09-12T05:41:08.783Z,6.63
2018-09-12T05:43:36.942Z,5.07
2018-09-12T05:46:05.590Z,5.63
2018-09-12T05:48:33.746Z,6.40
2018-09-12T05:51:02.021Z,6.67
2018-09-12T05:53:30.187Z,5.53
2018-09-12T05:55:58.358Z,6.40
2018-09-12T05:58:26.543Z,7.90
2018-09-12T06:00:54.721Z,6.90
2018-09-12T06:03:22.924Z,7.23
2018-09-12T06:05:51.111Z,7.03
2018-09-12T06:08:19.283Z,7.07
2018-09-12T06:10:47.517Z,8.67
2018-09-12T06:13:15.683Z,8.20
2018-09-12T06:15:44.775Z,8.80
2018-09-12T06:18:12.962Z,8.07
2018-09-12T06:20:41.139Z,7.40
2018-09-12T06:23:09.322Z,6.60
2018-09-12T06:25:37.533Z,6.57
2018-09-12T06:28:05.938Z,6.30
2018-09-12T06:30:34.122Z,5.60
2018-09-12T06:33:02.311Z,7.47
2018-09-12T06:35:30.486Z,7.30
2018-09-12T06:37:58.658Z,6.53
2018-09-12T06:40:26.841Z,6.43
2018-09-12T06:42:55.005Z,6.10
2018-09-12T06:45:23.277Z,6.43
2018-09-12T06:47:51.434Z,6.80
2018-09-12T06:50:21.098Z,6.57
2018-09-12T06:52:49.270Z,5.83
2018-09-12T06:55:17.450Z,6.50
2018-09-12T06:57:46.522Z,6.37
2018-09-12T07:00:14.694Z,6.87
2018-09-12T07:02:42.883Z,6.47
2018-09-12T07:05:11.265Z,6.13
2018-09-12T07:07:39.513Z,5.47
2018-09-12T07:10:07.893Z,5.25
2018-09-12T07:12:36.078Z,5.72
2018-09-12T07:15:04.253Z,5.00
2018-09-12T07:17:32.443Z,6.17
2018-09-12T07:20:00.623Z,6.50
2018-09-12T07:22:28.830Z,6.55
2018-09-12T07:24:57.001Z,6.03
2018-09-12T07:27:25.302Z,6.40
2018-09-12T07:29:53.473Z,6.03
2018-09-12T07:32:21.660Z,5.75
2018-09-12T07:34:49.834Z,5.83
2018-09-12T07:37:18.032Z,5.20
2018-09-12T07:39:46.207Z,4.87
2018-09-12T07:42:14.402Z,5.65
2018-09-12T07:44:42.581Z,5.97
2018-09-12T07:47:10.778Z,5.37
2018-09-12T07:49:39.452Z,5.08
2018-09-12T07:52:07.933Z,5.00
2018-09-12T07:54:36.106Z,5.22
2018-09-12T07:57:04.294Z,5.03
2018-09-12T07:59:32.478Z,5.40
2018-09-12T08:02:00.666Z,4.62
2018-09-12T08:04:28.857Z,4.03
2018-09-12T08:06:57.038Z,4.40
2018-09-12T08:09:25.203Z,3.95
2018-09-12T08:11:53.386Z,3.47
2018-09-12T08:14:21.557Z,3.47
2018-09-12T08:16:50.499Z,3.55
2018-09-12T08:19:18.671Z,3.98
2018-09-12T08:21:46.858Z,3.27
2018-09-12T08:24:15.059Z,3.50
2018-09-12T08:26:43.316Z,3.52
2018-09-12T08:29:11.474Z,3.25
2018-09-12T08:31:39.683Z,3.60
2018-09-12T08:34:07.967Z,3.42
2018-09-12T08:36:36.228Z,3.70
2018-09-12T08:39:06.046Z,3.67
2018-09-12T08:41:34.226Z,3.65
2018-09-12T08:44:02.407Z,3.05
2018-09-12T08:46:30.582Z,2.92
2018-09-12T08:48:58.746Z,3.22
2018-09-12T08:51:26.918Z,2.70
2018-09-12T08:53:55.102Z,2.85
2018-09-12T08:56:23.328Z,3.12
2018-09-12T08:58:51.510Z,3.20
2018-09-12T09:01:19.737Z,3.12
2018-09-12T09:03:48.417Z,2.83
2018-09-12T09:06:16.590Z,3.47
2018-09-12T09:08:44.769Z,3.12
2018-09-12T09:11:12.947Z,2.85
2018-09-12T09:13:41.149Z,3.20
2018-09-12T09:16:09.359Z,3.15
2018-09-12T09:18:37.566Z,3.02
2018-09-12T09:21:05.871Z,3.27
2018-09-12T09:23:34.161Z,3.12
2018-09-12T09:26:02.345Z,2.67
2018-09-12T09:28:30.540Z,2.47
2018-09-12T09:30:58.726Z,2.40
2018-09-12T09:33:26.917Z,2.60
2018-09-12T09:35:55.119Z,2.33
2018-09-12T09:38:23.318Z,2.72
2018-09-12T09:40:51.495Z,2.45
2018-09-12T09:43:19.684Z,2.75
2018-09-12T09:45:47.847Z,2.45
2018-09-12T09:48:16.252Z,2.52
2018-09-12T09:50:44.290Z,2.60
2018-09-12T09:53:12.470Z,2.90
2018-09-12T09:55:40.714Z,2.37
2018-09-12T09:58:08.930Z,2.17
2018-09-12T10:00:42.570Z,2.45
2018-09-12T10:03:16.242Z,2.20
2018-09-12T10:05:49.935Z,2.42
2018-09-12T10:08:23.614Z,2.52
2018-09-12T10:10:51.914Z,2.02
2018-09-12T10:13:20.102Z,2.00
2018-09-12T10:15:48.286Z,2.37
2018-09-12T10:18:16.492Z,2.30
2018-09-12T10:20:44.663Z,1.67
2018-09-12T10:23:12.995Z,1.92
2018-09-12T10:25:41.191Z,1.72
2018-09-12T10:28:09.384Z,1.90
2018-09-12T10:30:37.586Z,1.80
2018-09-12T10:33:05.854Z,2.00
2018-09-12T10:35:34.036Z,1.57
2018-09-12T10:38:02.236Z,1.85
2018-09-12T10:40:30.426Z,2.08
2018-09-12T10:42:58.604Z,1.90
2018-09-12T10:45:26.777Z,2.00
2018-09-12T10:47:54.957Z,1.92
2018-09-12T10:50:23.163Z,1.98
2018-09-12T10:52:51.918Z,2.20
2018-09-12T10:55:20.118Z,1.90
2018-09-12T10:57:48.290Z,2.17
2018-09-12T11:00:16.495Z,2.27
2018-09-12T11:02:44.743Z,2.27
2018-09-12T11:05:12.939Z,1.75
2018-09-12T11:07:41.115Z,1.98
2018-09-12T11:10:09.319Z,1.92
2018-09-12T11:12:37.498Z,1.50
2018-09-12T11:15:05.840Z,2.00
2018-09-12T11:17:33.987Z,1.98
2018-09-12T11:20:02.218Z,1.70
2018-09-12T11:22:30.411Z,2.00
2018-09-12T11:24:58.589Z,1.55
2018-09-12T11:27:26.760Z,1.77
2018-09-12T11:29:54.942Z,1.98
2018-09-12T11:32:23.111Z,1.80
2018-09-12T11:34:51.291Z,2.08
2018-09-12T11:37:19.566Z,1.87
2018-09-12T11:39:47.758Z,1.98
2018-09-12T11:42:15.963Z,2.12
2018-09-12T11:44:44.147Z,2.27
2018-09-12T11:47:12.326Z,2.00
2018-09-12T11:49:40.522Z,2.00
2018-09-12T11:52:08.809Z,1.82
2018-09-12T11:54:37.070Z,2.85
2018-09-12T11:57:05.314Z,2.22
2018-09-12T11:59:33.510Z,2.40
2018-09-12T12:02:01.740Z,2.17
2018-09-12T12:04:29.887Z,2.80
2018-09-12T12:06:58.098Z,3.10
2018-09-12T12:09:26.329Z,2.75
2018-09-12T12:11:54.546Z,2.72
2018-09-12T12:14:22.771Z,2.55
2018-09-12T12:16:50.954Z,3.05
2018-09-12T12:19:19.162Z,3.42
2018-09-12T12:21:47.340Z,2.85
2018-09-12T12:24:15.536Z,3.02
2018-09-12T12:26:43.700Z,2.45
2018-09-12T12:29:11.895Z,3.10
2018-09-12T12:31:40.075Z,2.83
2018-09-12T12:34:08.262Z,3.20
2018-09-12T12:36:36.438Z,3.33
2018-09-12T12:39:06.904Z,2.15
2018-09-12T12:41:35.093Z,3.05
2018-09-12T12:44:03.269Z,2.83
2018-09-12T12:46:31.450Z,2.60
2018-09-12T12:48:59.649Z,2.58
2018-09-12T12:51:27.842Z,3.00
2018-09-12T12:53:56.011Z,2.60
2018-09-12T12:56:24.226Z,2.52
2018-09-12T12:58:52.494Z,2.65
2018-09-12T13:01:21.034Z,2.52
2018-09-12T13:03:49.237Z,3.10
2018-09-12T13:06:17.435Z,2.85
2018-09-12T13:08:45.600Z,2.55
2018-09-12T13:11:13.787Z,2.80
2018-09-12T13:13:41.963Z,2.70
2018-09-12T13:16:10.174Z,3.02
2018-09-12T13:18:39.173Z,3.00
2018-09-12T13:21:07.354Z,2.65
2018-09-12T13:23:35.529Z,3.05
2018-09-12T13:26:03.738Z,3.15
2018-09-12T13:28:31.923Z,3.15
2018-09-12T13:31:00.113Z,3.02
2018-09-12T13:33:28.281Z,2.92
2018-09-12T13:35:56.471Z,2.65
2018-09-12T13:38:24.629Z,2.60
2018-09-12T13:40:52.858Z,2.12
2018-09-12T13:43:21.054Z,2.85
2018-09-12T13:45:49.230Z,2.58
2018-09-12T13:48:17.421Z,2.27
2018-09-12T13:50:45.615Z,2.70
2018-09-12T13:53:13.785Z,2.27
2018-09-12T13:55:41.966Z,2.15
2018-09-12T13:58:10.139Z,2.25
2018-09-12T14:00:38.329Z,1.92
2018-09-12T14:03:06.585Z,2.40
2018-09-12T14:05:34.758Z,2.80
2018-09-12T14:08:02.932Z,2.98
2018-09-12T14:10:31.118Z,2.85
2018-09-12T14:12:59.362Z,2.77
2018-09-12T14:15:27.557Z,2.40
2018-09-12T14:17:55.738Z,2.92
2018-09-12T14:20:23.928Z,3.00
2018-09-12T14:22:52.139Z,3.02
2018-09-12T14:25:20.430Z,2.90
2018-09-12T14:27:48.617Z,3.30
2018-09-12T14:30:16.822Z,33.75
2018-09-12T14:32:44.995Z,10.00
2018-09-12T14:35:13.160Z,3.27
2018-09-12T14:37:41.342Z,3.33
2018-09-12T14:40:09.535Z,3.40
2018-09-12T14:42:37.722Z,3.22
2018-09-12T14:45:06.425Z,2.90
2018-09-12T14:47:34.599Z,3.15
2018-09-12T14:50:02.778Z,3.12
2018-09-12T14:52:30.954Z,2.92
2018-09-12T14:54:59.757Z,2.98
2018-09-12T14:57:27.936Z,2.95
2018-09-12T14:59:56.118Z,3.45
2018-09-12T15:02:25.070Z,3.10
2018-09-12T15:04:53.358Z,3.02
2018-09-12T15:07:21.506Z,3.02
2018-09-12T15:09:49.692Z,3.10
2018-09-12T15:12:17.883Z,2.85
2018-09-12T15:14:46.055Z,2.65
2018-09-12T15:17:14.305Z,2.55
2018-09-12T15:19:45.193Z,3.22
2018-09-12T15:22:13.442Z,3.17
2018-09-12T15:24:41.630Z,3.12
2018-09-12T15:27:09.815Z,2.87
2018-09-12T15:29:37.994Z,3.85
2018-09-12T15:32:06.250Z,4.00
2018-09-12T15:34:34.410Z,5.53
2018-09-12T15:37:02.684Z,6.30
2018-09-12T15:39:30.798Z,5.17
2018-09-12T15:41:58.965Z,3.77
2018-09-12T15:44:27.157Z,3.65
2018-09-12T15:46:55.421Z,4.30
2018-09-12T15:49:24.435Z,4.55
2018-09-12T15:51:59.023Z,4.08
2018-09-12T15:54:27.190Z,3.67
2018-09-12T15:56:55.470Z,3.77
2018-09-12T15:59:23.646Z,3.67
2018-09-12T16:01:54.261Z,3.60
2018-09-12T16:04:22.512Z,16.52
2018-09-12T16:06:51.427Z,4.70
2018-09-12T16:09:19.598Z,4.03
2018-09-12T16:11:48.030Z,4.00
2018-09-12T16:14:16.285Z,4.53
2018-09-12T16:16:44.553Z,3.52
2018-09-12T16:19:12.740Z,3.95
2018-09-12T16:21:40.920Z,4.22
2018-09-12T16:24:09.099Z,4.30
2018-09-12T16:26:37.282Z,4.40
2018-09-12T16:29:05.471Z,4.15
2018-09-12T16:31:33.654Z,3.60
2018-09-12T16:34:01.882Z,4.00
2018-09-12T16:36:30.101Z,5.00
2018-09-12T16:38:58.269Z,4.70
2018-09-12T16:41:26.516Z,6.05
2018-09-12T16:43:54.802Z,8.03
2018-09-12T16:46:22.980Z,8.85
2018-09-12T16:48:51.158Z,10.95
2018-09-12T16:51:19.337Z,9.75
2018-09-12T16:53:47.532Z,9.35
2018-09-12T16:56:15.863Z,10.45
2018-09-12T16:58:43.978Z,12.03
2018-09-12T17:01:12.167Z,10.23
2018-09-12T17:03:40.362Z,12.10
2018-09-12T17:06:08.555Z,11.40
2018-09-12T17:08:36.753Z,10.93
2018-09-12T17:11:04.933Z,12.78
2018-09-12T17:13:33.143Z,10.70
2018-09-12T17:16:01.331Z,12.43
2018-09-12T17:18:29.519Z,13.05
2018-09-12T17:20:57.693Z,12.03
2018-09-12T17:23:25.901Z,13.10
2018-09-12T17:25:54.077Z,14.68
2018-09-12T17:28:22.303Z,12.85
2018-09-12T17:30:51.086Z,13.70
2018-09-12T17:33:19.298Z,13.30
2018-09-12T17:35:47.589Z,14.68
2018-09-12T17:38:16.502Z,13.38
2018-09-12T17:40:44.690Z,13.60
2018-09-12T17:43:12.877Z,15.18
2018-09-12T17:45:41.071Z,14.20
2018-09-12T17:48:09.258Z,13.60
2018-09-12T17:50:37.449Z,13.28
2018-09-12T17:53:05.707Z,12.10
2018-09-12T17:55:33.956Z,12.18
2018-09-12T17:58:02.873Z,11.83
2018-09-12T18:00:31.940Z,10.32
2018-09-12T18:03:00.157Z,10.80
2018-09-12T18:05:28.549Z,12.58
2018-09-12T18:07:56.707Z,12.23
2018-09-12T18:10:25.088Z,12.43
2018-09-12T18:12:53.278Z,11.65
2018-09-12T18:15:21.535Z,12.05
2018-09-12T18:17:49.743Z,12.60
2018-09-12T18:20:17.933Z,16.57
2018-09-12T18:22:46.137Z,16.32
2018-09-12T18:25:14.311Z,15.55
2018-09-12T18:27:42.529Z,16.48
2018-09-12T18:30:11.489Z,18.70
2018-09-12T18:32:39.922Z,19.57
2018-09-12T18:35:08.162Z,20.12
2018-09-12T18:37:36.360Z,17.75
2018-09-12T18:40:04.890Z,18.50
2018-09-12T18:42:33.103Z,18.32
2018-09-12T18:45:01.409Z,20.43
2018-09-12T18:47:29.598Z,20.65
2018-09-12T18:49:57.915Z,20.20
2018-09-12T18:52:26.109Z,18.92
2018-09-12T18:54:54.291Z,19.87
2018-09-12T18:57:22.671Z,17.80
2018-09-12T18:59:50.951Z,20.52
2018-09-12T19:02:19.162Z,19.02
2018-09-12T19:04:47.395Z,19.73
2018-09-12T19:07:15.807Z,19.35
2018-09-12T19:09:43.845Z,16.85
2018-09-12T19:12:12.041Z,17.50
2018-09-12T19:14:40.254Z,16.40
2018-09-12T19:17:08.895Z,16.45
2018-09-12T19:19:37.086Z,18.12
2018-09-12T19:22:05.267Z,13.25
2018-09-12T19:24:37.090Z,18.48
2018-09-12T19:27:05.342Z,17.92
2018-09-12T19:29:33.547Z,18.50
2018-09-12T19:32:01.780Z,15.45
2018-09-12T19:34:30.318Z,18.85
2018-09-12T19:36:58.617Z,20.23
2018-09-12T19:39:27.380Z,14.78
2018-09-12T19:41:55.589Z,17.82
2018-09-12T19:44:23.884Z,16.05
2018-09-12T19:46:52.162Z,17.48
2018-09-12T19:49:20.488Z,16.42
2018-09-12T19:51:48.702Z,19.15
2018-09-12T19:54:17.053Z,14.73
2018-09-12T19:56:45.334Z,16.57
2018-09-12T19:59:14.409Z,18.50
2018-09-12T20:01:42.646Z,16.45
2018-09-12T20:04:11.014Z,18.75
2018-09-12T20:06:39.274Z,17.85
2018-09-12T20:09:10.299Z,17.05
2018-09-12T20:11:39.431Z,18.52
2018-09-12T20:14:07.640Z,18.77
2018-09-12T20:16:35.898Z,17.40
2018-09-12T20:19:04.138Z,18.15
2018-09-12T20:21:32.383Z,14.25
2018-09-12T20:24:00.864Z,20.32
2018-09-12T20:26:29.871Z,17.17
2018-09-12T20:28:58.683Z,18.45
2018-09-12T20:31:27.071Z,21.15
2018-09-12T20:33:55.328Z,18.50
2018-09-12T20:36:23.499Z,19.27
2018-09-12T20:38:51.693Z,20.50
2018-09-12T20:41:19.904Z,18.57
2018-09-12T20:43:48.146Z,21.00
2018-09-12T20:46:16.342Z,20.48
2018-09-12T20:48:45.390Z,17.52
2018-09-12T20:51:14.593Z,19.45
2018-09-12T20:53:42.876Z,15.98
2018-09-12T20:56:11.098Z,18.98
2018-09-12T20:58:39.376Z,18.15
2018-09-12T21:01:07.591Z,16.60
2018-09-12T21:03:35.790Z,19.60
2018-09-12T21:06:03.994Z,13.38
2018-09-12T21:08:32.190Z,18.87
2018-09-12T21:11:00.407Z,24.25
2018-09-12T21:13:28.565Z,20.70
2018-09-12T21:15:56.778Z,19.32
2018-09-12T21:18:24.972Z,19.07
2018-09-12T21:20:53.172Z,16.67
2018-09-12T21:23:21.369Z,18.62
2018-09-12T21:25:49.571Z,17.15
2018-09-12T21:28:17.750Z,14.45
2018-09-12T21:30:45.939Z,13.35
2018-09-12T21:33:14.137Z,16.37
2018-09-12T21:35:42.321Z,18.50
2018-09-12T21:38:10.487Z,18.67
2018-09-12T21:40:38.869Z,17.25
2018-09-12T21:43:07.107Z,16.48
2018-09-12T21:45:35.307Z,19.12
2018-09-12T21:48:03.495Z,17.73
2018-09-12T21:50:31.746Z,15.05
2018-09-12T21:52:59.934Z,19.52
2018-09-12T21:55:28.130Z,14.87
2018-09-12T21:57:56.317Z,20.88
2018-09-12T22:00:24.506Z,17.25
2018-09-12T22:02:52.690Z,20.60
2018-09-12T22:05:20.895Z,20.23
2018-09-12T22:07:49.128Z,16.40
2018-09-12T22:10:17.306Z,17.62
2018-09-12T22:12:45.482Z,21.00
2018-09-12T22:15:13.721Z,17.75
2018-09-12T22:17:41.918Z,18.30
2018-09-12T22:20:10.088Z,18.25
2018-09-12T22:22:38.281Z,17.23
2018-09-12T22:25:07.021Z,18.80
2018-09-12T22:27:35.213Z,16.65
2018-09-12T22:30:03.430Z,17.87
2018-09-12T22:32:31.613Z,15.67
2018-09-12T22:34:59.814Z,18.87
2018-09-12T22:37:27.994Z,18.67
2018-09-12T22:39:56.174Z,17.13
2018-09-12T22:42:24.370Z,18.30
2018-09-12T22:44:52.998Z,19.23
2018-09-12T22:47:21.188Z,15.67
2018-09-12T22:49:49.369Z,16.10
2018-09-12T22:52:17.557Z,17.40
2018-09-12T22:54:45.746Z,18.13
2018-09-12T22:57:13.962Z,17.07
2018-09-12T22:59:42.155Z,17.53
2018-09-12T23:02:10.342Z,17.70
2018-09-12T23:04:39.067Z,15.23
2018-09-12T23:07:07.263Z,16.70
2018-09-12T23:09:35.465Z,18.23
2018-09-12T23:12:04.719Z,16.80
2018-09-12T23:14:32.886Z,16.33
2018-09-12T23:17:01.166Z,19.13
2018-09-12T23:19:29.286Z,16.87
2018-09-12T23:21:57.473Z,16.03
2018-09-12T23:24:25.686Z,17.67
2018-09-12T23:26:53.894Z,14.25
2018-09-12T23:29:22.065Z,14.73
2018-09-12T23:31:50.257Z,14.73
2018-09-12T23:34:18.462Z,12.00
2018-09-12T23:36:46.673Z,13.23
2018-09-12T23:39:14.882Z,12.03
2018-09-12T23:41:43.070Z,10.93
2018-09-12T23:44:11.530Z,12.43
2018-09-12T23:46:39.746Z,10.10
2018-09-12T23:49:08.599Z,14.13
2018-09-12T23:51:36.801Z,15.33
2018-09-12T23:54:05.002Z,13.17
2018-09-12T23:56:33.214Z,11.23
2018-09-12T23:59:01.392Z,15.63
